createdAt,value
2023-04-11T00:00:15.916Z,13.02
2023-04-11T00:02:42.514Z,13.43
2023-04-11T00:05:09.846Z,12.02
2023-04-11T00:07:36.376Z,11.68
2023-04-11T00:10:03.256Z,11.38
2023-04-11T00:12:29.838Z,9.02
2023-04-11T00:14:56.542Z,7.95
2023-04-11T00:17:23.791Z,6.25
2023-04-11T00:19:53.342Z,6.40
2023-04-11T00:22:20.005Z,5.05
2023-04-11T00:24:46.712Z,5.22
2023-04-11T00:27:13.220Z,6.13
2023-04-11T00:29:40.541Z,5.90
2023-04-11T00:32:07.304Z,5.28
2023-04-11T00:34:34.323Z,5.38
2023-04-11T00:37:01.703Z,5.57
2023-04-11T00:39:30.781Z,6.97
2023-04-11T00:42:05.074Z,7.82
2023-04-11T00:44:31.774Z,6.18
2023-04-11T00:46:59.485Z,6.05
2023-04-11T00:49:26.221Z,5.45
2023-04-11T00:51:53.304Z,7.07
2023-04-11T00:54:20.191Z,6.10
2023-04-11T00:56:47.016Z,5.20
2023-04-11T00:59:13.641Z,4.90
2023-04-11T01:01:41.704Z,4.60
2023-04-11T01:04:08.517Z,3.63
2023-04-11T01:06:35.275Z,3.45
2023-04-11T01:09:02.177Z,3.58
2023-04-11T01:11:28.721Z,5.47
2023-04-11T01:13:55.462Z,4.53
2023-04-11T01:16:22.117Z,4.15
2023-04-11T01:18:49.568Z,3.38
2023-04-11T01:21:17.475Z,3.55
2023-04-11T01:23:44.070Z,3.40
2023-04-11T01:26:11.391Z,3.95
2023-04-11T01:28:37.874Z,3.15
2023-04-11T01:31:04.487Z,2.42
2023-04-11T01:33:31.287Z,3.00
2023-04-11T01:35:58.104Z,2.72
2023-04-11T01:38:24.718Z,2.92
2023-04-11T01:40:52.079Z,2.63
2023-04-11T01:43:18.863Z,2.60
2023-04-11T01:45:45.498Z,2.63
2023-04-11T01:48:12.137Z,2.38
2023-04-11T01:50:38.722Z,2.42
2023-04-11T01:53:05.208Z,2.78
2023-04-11T01:55:31.672Z,2.90
2023-04-11T01:57:58.203Z,2.47
2023-04-11T02:00:24.770Z,2.20
2023-04-11T02:02:51.441Z,2.97
2023-04-11T02:05:18.433Z,2.42
2023-04-11T02:07:45.163Z,2.33
2023-04-11T02:10:11.719Z,2.20
2023-04-11T02:12:38.218Z,2.85
2023-04-11T02:15:05.348Z,2.42
2023-04-11T02:17:32.033Z,2.72
2023-04-11T02:19:58.596Z,2.95
2023-04-11T02:22:25.107Z,2.42
2023-04-11T02:24:51.622Z,2.58
2023-04-11T02:27:18.134Z,2.83
2023-04-11T02:29:44.631Z,2.70
2023-04-11T02:32:11.404Z,2.95
2023-04-11T02:34:37.964Z,2.17
2023-04-11T02:37:04.476Z,2.72
2023-04-11T02:39:31.595Z,2.63
2023-04-11T02:41:58.224Z,3.38
2023-04-11T02:44:26.344Z,2.80
2023-04-11T02:46:52.963Z,3.40
2023-04-11T02:49:20.051Z,2.75
2023-04-11T02:51:47.431Z,2.95
2023-04-11T02:54:13.955Z,2.90
2023-04-11T02:56:40.498Z,2.33
2023-04-11T02:59:07.286Z,2.53
2023-04-11T03:01:34.114Z,2.20
2023-04-11T03:04:00.894Z,2.42
2023-04-11T03:06:28.194Z,2.47
2023-04-11T03:08:55.052Z,2.83
2023-04-11T03:11:21.803Z,2.83
2023-04-11T03:13:48.355Z,4.32
2023-04-11T03:16:15.636Z,2.08
2023-04-11T03:18:42.157Z,1.95
2023-04-11T03:21:10.614Z,2.65
2023-04-11T03:26:07.444Z,2.47
2023-04-11T03:28:34.029Z,2.75
2023-04-11T03:31:00.639Z,2.35
2023-04-11T03:33:27.178Z,2.38
2023-04-11T03:35:53.747Z,2.05
2023-04-11T03:38:21.059Z,2.05
2023-04-11T03:40:47.901Z,2.30
2023-04-11T03:43:15.665Z,2.17
2023-04-11T03:45:42.179Z,2.08
2023-04-11T03:48:08.760Z,1.88
2023-04-11T03:50:35.478Z,2.33
2023-04-11T03:53:02.064Z,2.33
2023-04-11T03:55:28.591Z,2.15
2023-04-11T03:57:55.130Z,1.77
2023-04-11T04:00:21.670Z,1.80
2023-04-11T04:02:48.401Z,2.38
2023-04-11T04:05:15.019Z,1.65
2023-04-11T04:07:41.632Z,1.80
2023-04-11T04:10:08.637Z,2.42
2023-04-11T04:12:35.590Z,2.00
2023-04-11T04:15:02.362Z,1.98
2023-04-11T04:17:28.951Z,2.00
2023-04-11T04:19:55.491Z,2.25
2023-04-11T04:22:22.252Z,2.10
2023-04-11T04:24:48.822Z,2.33
2023-04-11T04:27:18.274Z,1.58
2023-04-11T04:29:58.474Z,2.15
2023-04-11T04:32:31.040Z,1.92
2023-04-11T04:34:58.744Z,1.77
2023-04-11T04:37:27.180Z,1.77
2023-04-11T04:39:55.640Z,2.55
2023-04-11T04:42:27.558Z,2.60
2023-04-11T04:44:55.682Z,2.42
2023-04-11T04:47:24.262Z,2.17
2023-04-11T04:49:55.229Z,2.15
2023-04-11T04:52:23.376Z,2.40
2023-04-11T04:54:49.956Z,2.42
2023-04-11T04:57:16.483Z,2.92
2023-04-11T04:59:44.729Z,2.42
2023-04-11T05:02:11.740Z,2.58
2023-04-11T05:04:38.687Z,2.30
2023-04-11T05:07:05.221Z,2.83
2023-04-11T05:09:32.080Z,3.42
2023-04-11T05:11:58.660Z,3.10
2023-04-11T05:14:25.192Z,2.95
2023-04-11T05:16:51.825Z,3.05
2023-04-11T05:19:18.401Z,2.58
2023-04-11T05:21:45.033Z,3.47
2023-04-11T05:24:12.118Z,2.70
2023-04-11T05:26:38.614Z,3.33
2023-04-11T05:29:06.565Z,2.03
2023-04-11T05:31:33.174Z,2.83
2023-04-11T05:33:59.750Z,2.97
2023-04-11T05:36:28.439Z,2.53
2023-04-11T05:38:54.938Z,2.50
2023-04-11T05:41:21.574Z,3.05
2023-04-11T05:43:48.124Z,2.33
2023-04-11T05:46:14.692Z,2.45
2023-04-11T05:48:41.528Z,2.25
2023-04-11T05:51:08.443Z,2.17
2023-04-11T05:53:35.194Z,2.10
2023-04-11T05:56:01.796Z,2.80
2023-04-11T05:58:29.829Z,3.40
2023-04-11T06:00:59.923Z,2.30
2023-04-11T06:03:27.344Z,3.45
2023-04-11T06:05:54.172Z,1.88
2023-04-11T06:08:21.515Z,3.28
2023-04-11T06:10:48.270Z,2.67
2023-04-11T06:13:14.843Z,3.00
2023-04-11T06:15:41.511Z,2.83
2023-04-11T06:18:08.082Z,2.65
2023-04-11T06:20:34.744Z,2.55
2023-04-11T06:23:01.946Z,2.95
2023-04-11T06:25:28.559Z,2.30
2023-04-11T06:27:55.052Z,3.15
2023-04-11T06:30:21.561Z,2.85
2023-04-11T06:32:48.230Z,6.00
2023-04-11T06:35:14.883Z,3.08
2023-04-11T06:37:42.584Z,2.53
2023-04-11T06:40:09.477Z,1.88
2023-04-11T06:42:36.006Z,2.38
2023-04-11T06:45:02.744Z,2.58
2023-04-11T06:47:29.313Z,2.55
2023-04-11T06:49:56.240Z,2.63
2023-04-11T06:52:22.882Z,2.40
2023-04-11T06:54:49.437Z,2.58
2023-04-11T06:57:16.278Z,2.58
2023-04-11T06:59:42.793Z,2.35
2023-04-11T07:02:09.336Z,2.75
2023-04-11T07:04:36.082Z,3.17
2023-04-11T07:07:02.668Z,3.15
2023-04-11T07:09:29.276Z,2.72
2023-04-11T07:11:56.637Z,2.50
2023-04-11T07:14:23.257Z,3.13
2023-04-11T07:16:49.806Z,2.97
2023-04-11T07:19:16.337Z,2.72
2023-04-11T07:21:42.891Z,2.78
2023-04-11T07:24:11.165Z,2.95
2023-04-11T07:26:38.910Z,3.40
2023-04-11T07:29:07.126Z,3.05
2023-04-11T07:31:36.483Z,2.67
2023-04-11T07:34:03.028Z,2.38
2023-04-11T07:36:29.588Z,2.60
2023-04-11T07:38:56.472Z,3.28
2023-04-11T07:41:23.139Z,3.53
2023-04-11T07:43:49.747Z,2.30
2023-04-11T07:46:16.335Z,2.35
2023-04-11T07:48:43.290Z,2.75
2023-04-11T07:51:09.830Z,3.05
2023-04-11T07:53:36.718Z,2.20
2023-04-11T07:56:03.283Z,2.78
2023-04-11T07:58:30.246Z,2.75
2023-04-11T08:00:56.882Z,3.45
2023-04-11T08:03:24.051Z,2.22
2023-04-11T08:05:51.076Z,3.60
2023-04-11T08:08:17.665Z,2.10
2023-04-11T08:10:44.202Z,2.42
2023-04-11T08:13:10.689Z,2.97
2023-04-11T08:15:38.792Z,2.50
2023-04-11T08:18:05.350Z,2.55
2023-04-11T08:20:32.098Z,3.17
2023-04-11T08:22:59.385Z,2.53
2023-04-11T08:25:26.240Z,2.28
2023-04-11T08:27:52.870Z,2.38
2023-04-11T08:30:20.468Z,1.95
2023-04-11T08:32:47.202Z,2.53
2023-04-11T08:35:13.848Z,2.30
2023-04-11T08:37:40.804Z,2.22
2023-04-11T08:40:08.451Z,2.00
2023-04-11T08:42:35.250Z,2.33
2023-04-11T08:45:08.853Z,2.55
2023-04-11T08:47:36.637Z,2.00
2023-04-11T08:50:04.340Z,1.92
2023-04-11T08:52:31.642Z,2.08
2023-04-11T08:54:58.147Z,2.10
2023-04-11T08:57:27.570Z,2.53
2023-04-11T09:00:00.328Z,2.15
2023-04-11T09:02:27.807Z,2.28
2023-04-11T09:04:55.068Z,2.03
2023-04-11T09:07:22.062Z,3.15
2023-04-11T09:09:48.554Z,1.70
2023-04-11T09:12:15.814Z,2.88
2023-04-11T09:14:42.482Z,2.13
2023-04-11T09:17:16.858Z,2.72
2023-04-11T09:19:44.256Z,2.22
2023-04-11T09:24:39.457Z,2.28
2023-04-11T09:27:14.287Z,2.42
2023-04-11T09:29:47.634Z,3.10
2023-04-11T09:32:34.903Z,2.35
2023-04-11T09:35:07.653Z,2.63
2023-04-11T09:37:49.198Z,2.38
2023-04-11T09:40:17.529Z,2.65
2023-04-11T09:42:45.858Z,2.45
2023-04-11T09:45:20.536Z,2.65
2023-04-11T09:47:48.279Z,2.80
2023-04-11T09:50:15.058Z,3.15
2023-04-11T09:52:43.160Z,2.50
2023-04-11T09:55:12.676Z,2.58
2023-04-11T09:57:45.992Z,2.05
2023-04-11T10:00:17.118Z,2.75
2023-04-11T10:02:49.701Z,2.47
2023-04-11T10:05:18.237Z,1.98
2023-04-11T10:07:46.696Z,2.97
2023-04-11T10:10:21.378Z,2.70
2023-04-11T10:12:48.704Z,1.77
2023-04-11T10:15:15.895Z,2.70
2023-04-11T10:17:42.704Z,2.78
2023-04-11T10:20:42.676Z,2.72
2023-04-11T10:23:09.953Z,2.25
2023-04-11T10:25:55.736Z,2.67
2023-04-11T10:28:38.166Z,2.60
2023-04-11T10:31:14.506Z,2.30
2023-04-11T10:34:18.870Z,2.67
2023-04-11T10:37:08.123Z,2.38
2023-04-11T10:39:50.064Z,2.28
2023-04-11T10:42:32.190Z,2.50
2023-04-11T10:45:27.772Z,2.75
2023-04-11T10:47:57.474Z,2.38
2023-04-11T10:50:26.887Z,2.90
2023-04-11T10:52:54.340Z,2.83
2023-04-11T10:55:21.248Z,2.72
2023-04-11T10:58:04.073Z,2.63
2023-04-11T11:00:32.609Z,2.60
2023-04-11T11:03:00.122Z,2.75
2023-04-11T11:05:26.828Z,2.65
2023-04-11T11:07:53.832Z,2.25
2023-04-11T11:10:38.905Z,2.90
2023-04-11T11:13:05.664Z,2.80
2023-04-11T11:15:37.488Z,2.90
2023-04-11T11:18:07.206Z,2.67
2023-04-11T11:20:34.913Z,2.95
2023-04-11T11:23:09.496Z,2.47
2023-04-11T11:28:04.082Z,3.10
2023-04-11T11:30:31.248Z,3.15
2023-04-11T11:32:58.321Z,2.20
2023-04-11T11:35:25.409Z,3.08
2023-04-11T11:37:53.703Z,2.97
2023-04-11T11:40:22.202Z,3.22
2023-04-11T11:42:50.103Z,3.38
2023-04-11T11:45:23.735Z,2.80
2023-04-11T11:47:50.468Z,2.63
2023-04-11T11:50:29.856Z,2.88
2023-04-11T11:52:59.909Z,2.60
2023-04-11T11:55:26.539Z,3.20
2023-04-11T11:57:53.657Z,2.95
2023-04-11T12:00:24.595Z,2.90
2023-04-11T12:02:52.586Z,2.13
2023-04-11T12:05:19.985Z,2.10
2023-04-11T12:07:46.667Z,2.20
2023-04-11T12:10:17.242Z,1.98
2023-04-11T12:12:53.747Z,2.10
2023-04-11T12:15:22.814Z,2.92
2023-04-11T12:17:53.502Z,2.80
2023-04-11T12:20:24.554Z,3.10
2023-04-11T12:22:53.681Z,2.63
2023-04-11T12:25:21.864Z,2.65
2023-04-11T12:27:48.537Z,3.63
2023-04-11T12:30:15.518Z,2.65
2023-04-11T12:32:42.799Z,2.83
2023-04-11T12:35:10.345Z,2.65
2023-04-11T12:37:37.641Z,2.47
2023-04-11T12:40:09.227Z,2.03
2023-04-11T12:42:41.908Z,1.88
2023-04-11T12:45:12.285Z,2.72
2023-04-11T12:47:39.312Z,2.88
2023-04-11T12:50:07.148Z,2.42
2023-04-11T12:52:34.424Z,2.08
2023-04-11T12:55:00.924Z,1.60
2023-04-11T12:57:28.140Z,2.45
2023-04-11T12:59:54.651Z,2.22
2023-04-11T13:02:21.581Z,1.75
2023-04-11T13:04:49.761Z,1.90
2023-04-11T13:07:16.697Z,1.70
2023-04-11T13:09:43.222Z,1.48
2023-04-11T13:12:09.760Z,1.85
2023-04-11T13:14:36.489Z,1.52
2023-04-11T13:17:03.483Z,1.98
2023-04-11T13:19:30.868Z,2.03
2023-04-11T13:21:57.600Z,2.10
2023-04-11T13:24:25.178Z,2.38
2023-04-11T13:26:52.265Z,2.40
2023-04-11T13:29:18.756Z,2.05
2023-04-11T13:31:45.338Z,2.47
2023-04-11T13:34:11.884Z,2.45
2023-04-11T13:36:38.620Z,2.55
2023-04-11T13:39:06.049Z,2.92
2023-04-11T13:41:32.855Z,2.28
2023-04-11T13:43:59.381Z,2.15
2023-04-11T13:46:26.300Z,2.10
2023-04-11T13:48:53.055Z,1.35
2023-04-11T13:51:19.665Z,2.10
2023-04-11T13:53:46.157Z,1.83
2023-04-11T13:56:12.654Z,1.70
2023-04-11T13:58:39.349Z,1.42
2023-04-11T14:01:06.678Z,2.22
2023-04-11T14:03:33.816Z,2.40
2023-04-11T14:06:01.283Z,1.80
2023-04-11T14:08:28.950Z,1.65
2023-04-11T14:10:55.703Z,1.98
2023-04-11T14:13:22.363Z,1.50
2023-04-11T14:15:54.876Z,2.00
2023-04-11T14:18:31.845Z,2.20
2023-04-11T14:21:01.149Z,1.83
2023-04-11T14:23:28.671Z,1.70
2023-04-11T14:25:55.389Z,1.90
2023-04-11T14:28:22.017Z,2.17
2023-04-11T14:30:48.693Z,1.85
2023-04-11T14:33:15.767Z,1.65
2023-04-11T14:35:46.856Z,2.17
2023-04-11T14:38:14.931Z,1.58
2023-04-11T14:43:08.254Z,1.63
2023-04-11T14:45:34.849Z,1.52
2023-04-11T14:48:01.983Z,1.98
2023-04-11T14:50:29.031Z,1.63
2023-04-11T14:52:55.791Z,1.65
2023-04-11T14:55:22.778Z,1.23
2023-04-11T14:57:52.739Z,1.58
2023-04-11T15:00:20.358Z,1.67
2023-04-11T15:02:48.069Z,1.67
2023-04-11T15:05:16.909Z,2.00
2023-04-11T15:07:45.322Z,1.90
2023-04-11T15:10:13.641Z,2.20
2023-04-11T15:12:40.374Z,1.60
2023-04-11T15:15:09.368Z,1.90
2023-04-11T15:17:43.682Z,2.10
2023-04-11T15:20:11.804Z,2.00
2023-04-11T15:22:43.208Z,1.52
2023-04-11T15:25:12.504Z,2.20
2023-04-11T15:27:39.393Z,1.77
2023-04-11T15:30:06.460Z,1.98
2023-04-11T15:32:33.087Z,2.55
2023-04-11T15:34:59.868Z,3.00
2023-04-11T15:37:26.625Z,2.00
2023-04-11T15:39:53.506Z,2.05
2023-04-11T15:42:20.120Z,2.20
2023-04-11T15:44:46.792Z,2.08
2023-04-11T15:47:13.629Z,2.25
2023-04-11T15:49:40.882Z,1.73
2023-04-11T15:52:07.416Z,1.95
2023-04-11T15:54:34.084Z,2.17
2023-04-11T15:57:02.400Z,2.10
2023-04-11T15:59:29.484Z,2.85
2023-04-11T16:04:24.552Z,2.65
2023-04-11T16:06:51.274Z,2.58
2023-04-11T16:09:17.975Z,2.80
2023-04-11T16:11:44.524Z,2.83
2023-04-11T16:14:11.459Z,3.03
2023-04-11T16:16:38.094Z,3.17
2023-04-11T16:19:06.236Z,3.15
2023-04-11T16:23:59.523Z,3.20
2023-04-11T16:26:27.104Z,3.83
2023-04-11T16:28:53.682Z,3.75
2023-04-11T16:31:24.665Z,2.38
2023-04-11T16:33:52.659Z,3.28
2023-04-11T16:36:20.308Z,2.78
2023-04-11T16:38:49.601Z,2.50
2023-04-11T16:41:17.365Z,3.28
2023-04-11T16:43:44.329Z,2.55
2023-04-11T16:46:14.855Z,2.83
2023-04-11T16:48:42.405Z,3.33
2023-04-11T16:51:10.654Z,2.53
2023-04-11T16:56:04.220Z,2.00
2023-04-11T16:58:31.204Z,2.90
2023-04-11T17:00:58.265Z,3.15
2023-04-11T17:03:25.426Z,1.90
2023-04-11T17:05:52.268Z,2.58
2023-04-11T17:08:18.852Z,3.28
2023-04-11T17:10:45.449Z,2.13
2023-04-11T17:13:12.028Z,3.00
2023-04-11T17:15:38.582Z,2.25
2023-04-11T17:18:05.346Z,2.47
2023-04-11T17:20:31.894Z,2.22
2023-04-11T17:22:58.484Z,2.97
2023-04-11T17:25:24.992Z,2.47
2023-04-11T17:27:51.514Z,2.47
2023-04-11T17:30:18.085Z,2.97
2023-04-11T17:32:47.882Z,2.58
2023-04-11T17:35:15.012Z,2.30
2023-04-11T17:37:41.572Z,2.42
2023-04-11T17:40:12.705Z,2.88
2023-04-11T17:42:40.106Z,3.28
2023-04-11T17:45:16.479Z,2.60
2023-04-11T17:47:44.336Z,3.25
2023-04-11T17:50:12.746Z,3.50
2023-04-11T17:55:08.241Z,2.78
2023-04-11T17:57:34.887Z,2.40
2023-04-11T18:00:19.121Z,2.53
2023-04-11T18:02:48.393Z,2.13
2023-04-11T18:05:23.738Z,2.92
2023-04-11T18:07:51.257Z,2.45
2023-04-11T18:10:18.535Z,3.42
2023-04-11T18:12:48.386Z,2.78
2023-04-11T18:15:15.100Z,3.10
2023-04-11T18:17:41.944Z,4.18
2023-04-11T18:20:10.559Z,2.78
2023-04-11T18:22:38.872Z,3.10
2023-04-11T18:27:33.004Z,3.30
2023-04-11T18:30:00.592Z,3.35
2023-04-11T18:32:32.021Z,3.50
2023-04-11T18:37:34.815Z,3.13
2023-04-11T18:40:01.956Z,3.13
2023-04-11T18:42:28.484Z,3.35
2023-04-11T18:44:57.256Z,3.05
2023-04-11T18:47:23.876Z,2.85
2023-04-11T18:49:51.201Z,3.40
2023-04-11T18:52:18.239Z,4.28
2023-04-11T18:54:45.451Z,2.72
2023-04-11T18:57:13.930Z,2.50
2023-04-11T18:59:43.615Z,3.33
2023-04-11T19:02:14.045Z,2.65
2023-04-11T19:04:44.090Z,3.80
2023-04-11T19:07:12.691Z,2.50
2023-04-11T19:09:39.239Z,3.17
2023-04-11T19:12:06.262Z,2.78
2023-04-11T19:14:33.528Z,2.53
2023-04-11T19:17:00.578Z,2.17
2023-04-11T19:19:27.980Z,2.85
2023-04-11T19:21:55.314Z,2.50
2023-04-11T19:24:21.860Z,1.92
2023-04-11T19:26:48.343Z,2.45
2023-04-11T19:29:14.904Z,2.45
2023-04-11T19:31:41.538Z,3.13
2023-04-11T19:34:08.111Z,2.15
2023-04-11T19:36:34.643Z,2.65
2023-04-11T19:39:01.209Z,2.95
2023-04-11T19:41:28.408Z,2.17
2023-04-11T19:43:55.298Z,2.83
2023-04-11T19:46:22.027Z,3.33
2023-04-11T19:48:48.646Z,3.47
2023-04-11T19:51:15.307Z,2.83
2023-04-11T19:53:41.826Z,2.00
2023-04-11T19:56:10.803Z,3.30
2023-04-11T19:58:37.449Z,2.78
2023-04-11T20:01:04.815Z,2.20
2023-04-11T20:03:32.380Z,2.20
2023-04-11T20:05:59.588Z,3.05
2023-04-11T20:08:27.460Z,3.35
2023-04-11T20:10:54.676Z,4.38
2023-04-11T20:13:21.534Z,3.33
2023-04-11T20:15:48.072Z,2.45
2023-04-11T20:18:15.942Z,3.28
2023-04-11T20:20:42.512Z,2.80
2023-04-11T20:23:09.060Z,2.90
2023-04-11T20:25:35.862Z,2.83
2023-04-11T20:28:02.540Z,3.83
2023-04-11T20:30:29.868Z,2.30
2023-04-11T20:32:56.754Z,2.00
2023-04-11T20:35:23.414Z,2.65
2023-04-11T20:37:50.225Z,2.15
2023-04-11T20:40:17.229Z,3.08
2023-04-11T20:42:45.723Z,2.85
2023-04-11T20:45:13.838Z,2.03
2023-04-11T20:47:41.287Z,2.28
2023-04-11T20:50:10.416Z,2.25
2023-04-11T20:52:38.108Z,2.30
2023-04-11T20:55:05.630Z,2.15
2023-04-11T20:57:33.723Z,2.17
2023-04-11T21:00:15.010Z,1.90
2023-04-11T21:02:44.085Z,2.03
2023-04-11T21:05:14.131Z,2.20
2023-04-11T21:07:42.278Z,2.58
2023-04-11T21:10:09.666Z,2.38
2023-04-11T21:12:36.898Z,2.85
2023-04-11T21:15:04.248Z,3.13
2023-04-11T21:17:34.832Z,3.70
2023-04-11T21:20:17.616Z,4.15
2023-04-11T21:22:44.760Z,4.47
2023-04-11T21:25:11.264Z,4.78
2023-04-11T21:27:37.754Z,7.60
2023-04-11T21:30:04.597Z,4.95
2023-04-11T21:32:31.099Z,5.28
2023-04-11T21:34:57.645Z,4.90
2023-04-11T21:37:24.290Z,4.95
2023-04-11T21:39:51.010Z,4.43
2023-04-11T21:42:17.612Z,3.72
2023-04-11T21:44:44.153Z,4.40
2023-04-11T21:47:10.688Z,4.88
2023-04-11T21:49:37.154Z,4.05
2023-04-11T21:52:03.691Z,4.05
2023-04-11T21:54:30.227Z,4.05
2023-04-11T21:56:57.378Z,3.65
2023-04-11T21:59:23.876Z,3.75
2023-04-11T22:01:50.744Z,4.13
2023-04-11T22:04:23.203Z,3.92
2023-04-11T22:06:49.947Z,3.45
2023-04-11T22:09:20.357Z,3.25
2023-04-11T22:11:46.919Z,2.67
2023-04-11T22:14:16.322Z,3.15
2023-04-11T22:16:48.913Z,2.67
2023-04-11T22:19:18.332Z,3.58
2023-04-11T22:21:55.875Z,3.08
2023-04-11T22:24:30.235Z,2.63
2023-04-11T22:26:58.325Z,2.15
2023-04-11T22:29:30.280Z,1.98
2023-04-11T22:32:00.627Z,2.38
2023-04-11T22:34:27.283Z,2.78
2023-04-11T22:36:53.791Z,2.35
2023-04-11T22:39:21.562Z,1.80
2023-04-11T22:41:52.300Z,2.25
2023-04-11T22:44:19.030Z,2.30
2023-04-11T22:47:00.522Z,2.28
2023-04-11T22:51:59.152Z,2.13
2023-04-11T22:54:28.994Z,2.10
2023-04-11T22:56:57.301Z,2.25
2023-04-11T22:59:27.840Z,2.35
2023-04-11T23:01:55.145Z,2.67
2023-04-11T23:04:22.164Z,2.97
2023-04-11T23:06:50.034Z,3.42
2023-04-11T23:09:20.103Z,2.80
2023-04-11T23:11:47.671Z,3.05
2023-04-11T23:14:15.327Z,3.25
2023-04-11T23:16:43.261Z,3.90
2023-04-11T23:19:10.292Z,3.10
2023-04-11T23:21:37.752Z,3.75
2023-04-11T23:24:05.493Z,4.57
2023-04-11T23:26:32.276Z,5.35
2023-04-11T23:29:00.855Z,5.47
2023-04-11T23:33:53.997Z,6.57
2023-04-11T23:36:20.962Z,6.55
2023-04-11T23:38:47.576Z,5.85
2023-04-11T23:41:14.755Z,4.65
2023-04-11T23:43:41.439Z,4.32
2023-04-11T23:46:08.056Z,3.83
2023-04-11T23:48:34.671Z,3.80
2023-04-11T23:51:01.333Z,4.20
2023-04-11T23:53:27.806Z,4.22
2023-04-11T23:55:54.300Z,4.97
2023-04-11T23:58:20.801Z,4.60
